sensor_id;sensor_type;location;lat;lon;timestamp;pressure;altitude;pressure_sealevel;temperature;humidity
49072;BME280;74284;52.610;10.236;2024-01-06T00:00:18;99868.91;;;3.29;72.00
49072;BME280;74284;52.610;10.236;2024-01-06T00:02:46;99874.72;;;3.38;71.10
49072;BME280;74284;52.610;10.236;2024-01-06T00:05:12;99884.94;;;3.21;71.72
49072;BME280;74284;52.610;10.236;2024-01-06T00:07:37;99881.41;;;3.22;71.53
49072;BME280;74284;52.610;10.236;2024-01-06T00:10:03;99883.06;;;3.25;71.83
49072;BME280;74284;52.610;10.236;2024-01-06T00:12:28;99887.94;;;2.85;72.55
49072;BME280;74284;52.610;10.236;2024-01-06T00:14:53;99886.22;;;3.59;70.30
49072;BME280;74284;52.610;10.236;2024-01-06T00:17:19;99884.41;;;3.11;72.11
49072;BME280;74284;52.610;10.236;2024-01-06T00:19:44;99875.81;;;3.56;70.07
49072;BME280;74284;52.610;10.236;2024-01-06T00:22:10;99882.19;;;3.96;69.06
49072;BME280;74284;52.610;10.236;2024-01-06T00:24:35;99882.78;;;3.32;70.52
49072;BME280;74284;52.610;10.236;2024-01-06T00:27:01;99880.78;;;2.91;72.50
49072;BME280;74284;52.610;10.236;2024-01-06T00:29:26;99879.69;;;3.21;71.75
49072;BME280;74284;52.610;10.236;2024-01-06T00:31:52;99890.72;;;3.56;70.60
49072;BME280;74284;52.610;10.236;2024-01-06T00:34:17;99888.19;;;2.25;74.54
49072;BME280;74284;52.610;10.236;2024-01-06T00:36:42;99891.06;;;2.44;75.08
49072;BME280;74284;52.610;10.236;2024-01-06T00:39:08;99899.53;;;1.97;78.62
49072;BME280;74284;52.610;10.236;2024-01-06T00:41:33;99900.47;;;2.24;77.33
49072;BME280;74284;52.610;10.236;2024-01-06T00:43:58;99903.03;;;2.26;77.43
49072;BME280;74284;52.610;10.236;2024-01-06T00:46:24;99907.97;;;1.79;78.79
49072;BME280;74284;52.610;10.236;2024-01-06T00:48:49;99903.34;;;1.87;79.74
49072;BME280;74284;52.610;10.236;2024-01-06T00:51:15;99901.94;;;2.05;79.38
49072;BME280;74284;52.610;10.236;2024-01-06T00:53:40;99904.66;;;1.72;80.29
49072;BME280;74284;52.610;10.236;2024-01-06T00:56:05;99906.50;;;1.98;79.44
49072;BME280;74284;52.610;10.236;2024-01-06T00:58:31;99910.97;;;1.34;82.40
49072;BME280;74284;52.610;10.236;2024-01-06T01:00:56;99908.69;;;1.53;82.95
49072;BME280;74284;52.610;10.236;2024-01-06T01:03:21;99905.91;;;1.28;84.16
49072;BME280;74284;52.610;10.236;2024-01-06T01:05:47;99911.91;;;1.64;82.43
49072;BME280;74284;52.610;10.236;2024-01-06T01:08:12;99908.75;;;1.51;82.73
49072;BME280;74284;52.610;10.236;2024-01-06T01:10:37;99913.22;;;1.48;82.76
49072;BME280;74284;52.610;10.236;2024-01-06T01:13:03;99914.38;;;1.38;84.58
49072;BME280;74284;52.610;10.236;2024-01-06T01:15:28;99915.78;;;1.49;83.53
49072;BME280;74284;52.610;10.236;2024-01-06T01:17:54;99921.72;;;1.25;83.21
49072;BME280;74284;52.610;10.236;2024-01-06T01:20:19;99924.44;;;1.53;82.77
49072;BME280;74284;52.610;10.236;2024-01-06T01:22:44;99929.13;;;1.42;83.27
49072;BME280;74284;52.610;10.236;2024-01-06T01:25:10;99933.28;;;1.80;80.88
49072;BME280;74284;52.610;10.236;2024-01-06T01:27:37;99934.50;;;1.98;79.88
49072;BME280;74284;52.610;10.236;2024-01-06T01:30:02;99938.94;;;1.66;81.12
49072;BME280;74284;52.610;10.236;2024-01-06T01:32:28;99939.44;;;1.48;82.96
49072;BME280;74284;52.610;10.236;2024-01-06T01:34:53;99943.38;;;1.64;81.73
49072;BME280;74284;52.610;10.236;2024-01-06T01:37:19;99942.25;;;1.73;80.88
49072;BME280;74284;52.610;10.236;2024-01-06T01:39:45;99951.72;;;1.78;80.31
49072;BME280;74284;52.610;10.236;2024-01-06T01:42:10;99955.06;;;1.83;79.82
49072;BME280;74284;52.610;10.236;2024-01-06T01:44:35;99954.16;;;2.14;78.28
49072;BME280;74284;52.610;10.236;2024-01-06T01:47:02;99953.38;;;2.10;78.27
49072;BME280;74284;52.610;10.236;2024-01-06T01:49:28;99951.94;;;2.00;78.80
49072;BME280;74284;52.610;10.236;2024-01-06T01:51:54;99963.16;;;2.05;78.45
49072;BME280;74284;52.610;10.236;2024-01-06T01:54:19;99961.19;;;2.12;78.00
49072;BME280;74284;52.610;10.236;2024-01-06T01:56:45;99965.56;;;1.83;79.78
49072;BME280;74284;52.610;10.236;2024-01-06T01:59:12;99968.28;;;2.10;77.99
49072;BME280;74284;52.610;10.236;2024-01-06T02:01:41;99968.19;;;1.83;79.48
49072;BME280;74284;52.610;10.236;2024-01-06T02:04:06;99968.69;;;1.96;79.63
49072;BME280;74284;52.610;10.236;2024-01-06T02:06:32;99974.88;;;1.94;78.85
49072;BME280;74284;52.610;10.236;2024-01-06T02:08:58;99975.56;;;2.00;79.05
49072;BME280;74284;52.610;10.236;2024-01-06T02:11:23;99976.03;;;1.52;81.07
49072;BME280;74284;52.610;10.236;2024-01-06T02:13:49;99974.53;;;1.75;80.73
49072;BME280;74284;52.610;10.236;2024-01-06T02:16:14;99972.34;;;1.59;81.91
49072;BME280;74284;52.610;10.236;2024-01-06T02:18:39;99976.38;;;1.71;81.26
49072;BME280;74284;52.610;10.236;2024-01-06T02:21:06;99981.34;;;1.49;81.67
49072;BME280;74284;52.610;10.236;2024-01-06T02:23:34;99983.13;;;1.80;80.91
49072;BME280;74284;52.610;10.236;2024-01-06T02:26:00;99985.72;;;1.50;81.68
49072;BME280;74284;52.610;10.236;2024-01-06T02:28:25;99974.19;;;1.87;80.22
49072;BME280;74284;52.610;10.236;2024-01-06T02:30:51;99983.53;;;1.97;78.67
49072;BME280;74284;52.610;10.236;2024-01-06T02:33:16;99989.03;;;1.88;79.57
49072;BME280;74284;52.610;10.236;2024-01-06T02:35:44;99995.56;;;2.04;78.36
49072;BME280;74284;52.610;10.236;2024-01-06T02:38:09;99987.78;;;2.01;78.70
49072;BME280;74284;52.610;10.236;2024-01-06T02:40:35;99997.16;;;2.10;77.46
49072;BME280;74284;52.610;10.236;2024-01-06T02:43:00;100000.88;;;2.31;76.97
49072;BME280;74284;52.610;10.236;2024-01-06T02:45:26;100003.78;;;2.23;77.25
49072;BME280;74284;52.610;10.236;2024-01-06T02:47:51;100008.66;;;2.06;78.42
49072;BME280;74284;52.610;10.236;2024-01-06T02:50:16;100001.63;;;2.06;78.02
49072;BME280;74284;52.610;10.236;2024-01-06T02:52:42;100006.38;;;1.94;78.52
49072;BME280;74284;52.610;10.236;2024-01-06T02:55:07;100010.63;;;1.98;78.80
49072;BME280;74284;52.610;10.236;2024-01-06T02:57:33;100012.19;;;1.74;80.10
49072;BME280;74284;52.610;10.236;2024-01-06T02:59:58;100013.16;;;1.70;80.24
49072;BME280;74284;52.610;10.236;2024-01-06T03:02:23;100012.91;;;1.79;79.40
49072;BME280;74284;52.610;10.236;2024-01-06T03:04:49;100018.34;;;1.71;80.23
49072;BME280;74284;52.610;10.236;2024-01-06T03:07:14;100019.34;;;1.98;79.33
49072;BME280;74284;52.610;10.236;2024-01-06T03:09:40;100023.56;;;1.40;81.87
49072;BME280;74284;52.610;10.236;2024-01-06T03:12:08;100022.88;;;1.66;80.62
49072;BME280;74284;52.610;10.236;2024-01-06T03:14:34;100015.72;;;1.73;80.20
49072;BME280;74284;52.610;10.236;2024-01-06T03:17:00;100020.78;;;2.10;78.26
49072;BME280;74284;52.610;10.236;2024-01-06T03:19:25;100026.88;;;1.79;79.48
49072;BME280;74284;52.610;10.236;2024-01-06T03:21:52;100021.19;;;1.95;78.94
49072;BME280;74284;52.610;10.236;2024-01-06T03:24:18;100025.03;;;1.83;79.70
49072;BME280;74284;52.610;10.236;2024-01-06T03:26:43;100018.72;;;1.57;81.28
49072;BME280;74284;52.610;10.236;2024-01-06T03:29:09;100024.19;;;1.50;81.61
49072;BME280;74284;52.610;10.236;2024-01-06T03:31:34;100023.72;;;1.68;80.66
49072;BME280;74284;52.610;10.236;2024-01-06T03:33:59;100027.25;;;1.66;80.84
49072;BME280;74284;52.610;10.236;2024-01-06T03:36:25;100030.63;;;1.71;79.82
49072;BME280;74284;52.610;10.236;2024-01-06T03:38:50;100038.66;;;1.32;82.32
49072;BME280;74284;52.610;10.236;2024-01-06T03:41:16;100034.84;;;1.08;83.10
49072;BME280;74284;52.610;10.236;2024-01-06T03:43:41;100030.66;;;1.69;81.01
49072;BME280;74284;52.610;10.236;2024-01-06T03:46:06;100030.16;;;1.88;79.71
49072;BME280;74284;52.610;10.236;2024-01-06T03:48:32;100031.09;;;1.52;80.71
49072;BME280;74284;52.610;10.236;2024-01-06T03:51:00;100038.50;;;1.71;80.04
49072;BME280;74284;52.610;10.236;2024-01-06T03:53:25;100039.38;;;1.37;81.86
49072;BME280;74284;52.610;10.236;2024-01-06T03:55:51;100044.47;;;1.76;79.66
49072;BME280;74284;52.610;10.236;2024-01-06T03:58:17;100041.88;;;1.42;80.99
49072;BME280;74284;52.610;10.236;2024-01-06T04:00:42;100049.69;;;1.77;78.89
49072;BME280;74284;52.610;10.236;2024-01-06T04:03:07;100044.16;;;1.55;80.38
49072;BME280;74284;52.610;10.236;2024-01-06T04:05:33;100054.03;;;1.46;81.92
49072;BME280;74284;52.610;10.236;2024-01-06T04:07:59;100053.53;;;1.64;79.74
49072;BME280;74284;52.610;10.236;2024-01-06T04:10:24;100043.59;;;1.75;79.32
49072;BME280;74284;52.610;10.236;2024-01-06T04:12:49;100052.72;;;1.62;79.45
49072;BME280;74284;52.610;10.236;2024-01-06T04:15:15;100041.94;;;1.73;79.99
49072;BME280;74284;52.610;10.236;2024-01-06T04:17:41;100047.25;;;2.02;78.30
49072;BME280;74284;52.610;10.236;2024-01-06T04:20:07;100049.59;;;1.80;79.00
49072;BME280;74284;52.610;10.236;2024-01-06T04:22:32;100059.88;;;1.88;78.31
49072;BME280;74284;52.610;10.236;2024-01-06T04:24:58;100054.81;;;1.82;79.06
49072;BME280;74284;52.610;10.236;2024-01-06T04:27:23;100059.97;;;1.85;79.07
49072;BME280;74284;52.610;10.236;2024-01-06T04:29:49;100065.47;;;1.76;79.85
49072;BME280;74284;52.610;10.236;2024-01-06T04:32:18;100069.94;;;1.72;80.26
49072;BME280;74284;52.610;10.236;2024-01-06T04:34:43;100070.88;;;2.02;78.01
49072;BME280;74284;52.610;10.236;2024-01-06T04:37:09;100074.47;;;1.98;77.72
49072;BME280;74284;52.610;10.236;2024-01-06T04:39:34;100077.63;;;2.11;77.66
49072;BME280;74284;52.610;10.236;2024-01-06T04:41:59;100082.59;;;1.89;77.80
49072;BME280;74284;52.610;10.236;2024-01-06T04:44:24;100087.34;;;1.75;79.56
49072;BME280;74284;52.610;10.236;2024-01-06T04:46:50;100090.09;;;1.70;80.02
49072;BME280;74284;52.610;10.236;2024-01-06T04:49:15;100089.41;;;1.96;78.50
49072;BME280;74284;52.610;10.236;2024-01-06T04:51:41;100092.16;;;1.59;79.57
49072;BME280;74284;52.610;10.236;2024-01-06T04:54:06;100102.84;;;1.84;79.50
49072;BME280;74284;52.610;10.236;2024-01-06T04:56:31;100102.44;;;1.99;78.52
49072;BME280;74284;52.610;10.236;2024-01-06T04:58:57;100107.00;;;1.58;79.97
49072;BME280;74284;52.610;10.236;2024-01-06T05:01:23;100105.22;;;1.93;78.72
49072;BME280;74284;52.610;10.236;2024-01-06T05:03:49;100103.03;;;1.78;79.87
49072;BME280;74284;52.610;10.236;2024-01-06T05:06:14;100113.50;;;1.44;81.09
49072;BME280;74284;52.610;10.236;2024-01-06T05:08:39;100115.59;;;1.29;82.08
49072;BME280;74284;52.610;10.236;2024-01-06T05:11:10;100106.34;;;1.50;81.65
49072;BME280;74284;52.610;10.236;2024-01-06T05:13:35;100112.13;;;1.65;80.65
49072;BME280;74284;52.610;10.236;2024-01-06T05:16:01;100120.84;;;1.65;80.33
49072;BME280;74284;52.610;10.236;2024-01-06T05:18:26;100122.31;;;1.41;81.98
49072;BME280;74284;52.610;10.236;2024-01-06T05:20:52;100126.78;;;1.72;80.20
49072;BME280;74284;52.610;10.236;2024-01-06T05:23:17;100126.03;;;1.68;80.56
49072;BME280;74284;52.610;10.236;2024-01-06T05:25:42;100144.78;;;1.51;80.97
49072;BME280;74284;52.610;10.236;2024-01-06T05:28:08;100135.34;;;1.44;81.57
49072;BME280;74284;52.610;10.236;2024-01-06T05:30:33;100138.53;;;1.57;81.17
49072;BME280;74284;52.610;10.236;2024-01-06T05:32:58;100139.38;;;1.59;80.32
49072;BME280;74284;52.610;10.236;2024-01-06T05:35:24;100149.84;;;1.59;80.24
49072;BME280;74284;52.610;10.236;2024-01-06T05:37:49;100155.50;;;1.78;79.75
49072;BME280;74284;52.610;10.236;2024-01-06T05:40:14;100159.19;;;2.05;77.96
49072;BME280;74284;52.610;10.236;2024-01-06T05:42:40;100162.06;;;1.60;80.11
49072;BME280;74284;52.610;10.236;2024-01-06T05:45:06;100158.69;;;1.89;78.83
49072;BME280;74284;52.610;10.236;2024-01-06T05:47:31;100176.00;;;1.62;79.43
49072;BME280;74284;52.610;10.236;2024-01-06T05:49:56;100168.75;;;1.73;79.00
49072;BME280;74284;52.610;10.236;2024-01-06T05:52:22;100180.28;;;1.66;79.60
49072;BME280;74284;52.610;10.236;2024-01-06T05:54:48;100185.69;;;1.60;80.54
49072;BME280;74284;52.610;10.236;2024-01-06T05:57:14;100183.06;;;1.58;79.74
49072;BME280;74284;52.610;10.236;2024-01-06T05:59:40;100193.25;;;1.35;80.99
49072;BME280;74284;52.610;10.236;2024-01-06T06:02:05;100194.78;;;1.44;80.79
49072;BME280;74284;52.610;10.236;2024-01-06T06:04:31;100190.81;;;1.63;80.33
49072;BME280;74284;52.610;10.236;2024-01-06T06:06:56;100196.56;;;1.79;79.18
49072;BME280;74284;52.610;10.236;2024-01-06T06:09:21;100193.22;;;1.74;78.84
49072;BME280;74284;52.610;10.236;2024-01-06T06:11:47;100195.19;;;1.98;77.79
49072;BME280;74284;52.610;10.236;2024-01-06T06:14:12;100201.69;;;1.48;79.19
49072;BME280;74284;52.610;10.236;2024-01-06T06:16:38;100200.25;;;1.72;79.02
49072;BME280;74284;52.610;10.236;2024-01-06T06:19:03;100211.53;;;1.38;79.98
49072;BME280;74284;52.610;10.236;2024-01-06T06:21:28;100207.13;;;1.76;78.89
49072;BME280;74284;52.610;10.236;2024-01-06T06:23:54;100205.16;;;1.50;80.50
49072;BME280;74284;52.610;10.236;2024-01-06T06:26:19;100207.41;;;1.65;79.29
49072;BME280;74284;52.610;10.236;2024-01-06T06:28:44;100217.53;;;1.43;80.37
49072;BME280;74284;52.610;10.236;2024-01-06T06:31:10;100221.66;;;1.55;79.42
49072;BME280;74284;52.610;10.236;2024-01-06T06:33:35;100222.56;;;1.52;80.00
49072;BME280;74284;52.610;10.236;2024-01-06T06:36:00;100240.28;;;1.43;79.29
49072;BME280;74284;52.610;10.236;2024-01-06T06:38:26;100239.69;;;1.30;80.44
49072;BME280;74284;52.610;10.236;2024-01-06T06:40:52;100249.53;;;1.59;78.90
49072;BME280;74284;52.610;10.236;2024-01-06T06:43:17;100246.22;;;1.49;79.26
49072;BME280;74284;52.610;10.236;2024-01-06T06:45:42;100247.88;;;1.53;79.73
49072;BME280;74284;52.610;10.236;2024-01-06T06:48:07;100264.28;;;1.63;78.67
49072;BME280;74284;52.610;10.236;2024-01-06T06:50:33;100267.75;;;1.65;78.66
49072;BME280;74284;52.610;10.236;2024-01-06T06:52:59;100277.22;;;1.71;77.86
49072;BME280;74284;52.610;10.236;2024-01-06T06:55:24;100273.25;;;1.90;77.43
49072;BME280;74284;52.610;10.236;2024-01-06T06:57:49;100277.16;;;1.74;76.89
49072;BME280;74284;52.610;10.236;2024-01-06T07:00:15;100284.91;;;1.40;77.41
49072;BME280;74284;52.610;10.236;2024-01-06T07:02:42;100285.34;;;1.20;79.37
49072;BME280;74284;52.610;10.236;2024-01-06T07:05:07;100286.44;;;1.09;80.43
49072;BME280;74284;52.610;10.236;2024-01-06T07:07:33;100282.13;;;1.47;78.98
49072;BME280;74284;52.610;10.236;2024-01-06T07:10:01;100297.22;;;1.38;79.77
49072;BME280;74284;52.610;10.236;2024-01-06T07:12:27;100294.88;;;1.24;79.98
49072;BME280;74284;52.610;10.236;2024-01-06T07:14:52;100296.13;;;1.06;80.24
49072;BME280;74284;52.610;10.236;2024-01-06T07:17:18;100297.84;;;1.07;80.99
49072;BME280;74284;52.610;10.236;2024-01-06T07:19:43;100313.06;;;0.87;81.24
49072;BME280;74284;52.610;10.236;2024-01-06T07:22:08;100304.22;;;1.37;79.51
49072;BME280;74284;52.610;10.236;2024-01-06T07:24:34;100306.56;;;1.09;80.24
49072;BME280;74284;52.610;10.236;2024-01-06T07:27:01;100310.19;;;1.02;80.27
49072;BME280;74284;52.610;10.236;2024-01-06T07:29:26;100309.00;;;1.17;79.60
49072;BME280;74284;52.610;10.236;2024-01-06T07:31:51;100315.09;;;1.17;79.52
49072;BME280;74284;52.610;10.236;2024-01-06T07:34:16;100321.28;;;0.67;81.77
49072;BME280;74284;52.610;10.236;2024-01-06T07:36:42;100323.78;;;1.21;80.65
49072;BME280;74284;52.610;10.236;2024-01-06T07:39:07;100326.50;;;1.16;80.32
49072;BME280;74284;52.610;10.236;2024-01-06T07:41:32;100329.72;;;1.29;79.74
49072;BME280;74284;52.610;10.236;2024-01-06T07:43:58;100331.53;;;1.67;77.70
49072;BME280;74284;52.610;10.236;2024-01-06T07:46:24;100343.16;;;1.12;79.07
49072;BME280;74284;52.610;10.236;2024-01-06T07:48:50;100343.84;;;1.23;79.20
49072;BME280;74284;52.610;10.236;2024-01-06T07:51:15;100353.47;;;1.21;78.80
49072;BME280;74284;52.610;10.236;2024-01-06T07:53:40;100362.00;;;1.31;78.83
49072;BME280;74284;52.610;10.236;2024-01-06T07:56:06;100363.38;;;1.07;79.79
49072;BME280;74284;52.610;10.236;2024-01-06T07:58:31;100373.09;;;1.45;78.53
49072;BME280;74284;52.610;10.236;2024-01-06T08:00:58;100370.53;;;1.42;78.02
49072;BME280;74284;52.610;10.236;2024-01-06T08:03:23;100379.84;;;1.14;78.87
49072;BME280;74284;52.610;10.236;2024-01-06T08:05:50;100378.88;;;1.19;79.56
49072;BME280;74284;52.610;10.236;2024-01-06T08:08:15;100386.81;;;1.15;79.25
49072;BME280;74284;52.610;10.236;2024-01-06T08:10:42;100378.00;;;1.17;79.37
49072;BME280;74284;52.610;10.236;2024-01-06T08:13:07;100386.50;;;1.31;78.56
49072;BME280;74284;52.610;10.236;2024-01-06T08:15:33;100389.31;;;1.21;79.70
49072;BME280;74284;52.610;10.236;2024-01-06T08:17:58;100398.81;;;0.78;80.27
49072;BME280;74284;52.610;10.236;2024-01-06T08:20:23;100396.78;;;0.94;80.09
49072;BME280;74284;52.610;10.236;2024-01-06T08:22:49;100399.41;;;0.96;79.77
49072;BME280;74284;52.610;10.236;2024-01-06T08:25:14;100397.78;;;0.87;79.85
49072;BME280;74284;52.610;10.236;2024-01-06T08:27:39;100408.66;;;1.15;79.50
49072;BME280;74284;52.610;10.236;2024-01-06T08:30:05;100412.00;;;1.23;78.34
49072;BME280;74284;52.610;10.236;2024-01-06T08:32:31;100415.25;;;0.87;80.99
49072;BME280;74284;52.610;10.236;2024-01-06T08:34:56;100410.50;;;1.08;79.71
49072;BME280;74284;52.610;10.236;2024-01-06T08:37:22;100416.72;;;1.03;79.55
49072;BME280;74284;52.610;10.236;2024-01-06T08:39:47;100423.16;;;0.83;79.42
49072;BME280;74284;52.610;10.236;2024-01-06T08:42:13;100420.69;;;1.27;78.50
49072;BME280;74284;52.610;10.236;2024-01-06T08:44:39;100428.72;;;1.18;78.89
49072;BME280;74284;52.610;10.236;2024-01-06T08:47:04;100432.66;;;1.39;76.82
49072;BME280;74284;52.610;10.236;2024-01-06T08:49:30;100443.88;;;0.99;79.41
49072;BME280;74284;52.610;10.236;2024-01-06T08:51:55;100443.25;;;1.34;78.28
49072;BME280;74284;52.610;10.236;2024-01-06T08:54:20;100435.84;;;1.09;79.43
49072;BME280;74284;52.610;10.236;2024-01-06T08:56:46;100452.72;;;0.93;79.33
49072;BME280;74284;52.610;10.236;2024-01-06T08:59:11;100450.44;;;0.70;81.40
49072;BME280;74284;52.610;10.236;2024-01-06T09:01:36;100461.31;;;1.01;79.51
49072;BME280;74284;52.610;10.236;2024-01-06T09:04:02;100461.97;;;0.58;81.85
49072;BME280;74284;52.610;10.236;2024-01-06T09:06:28;100466.88;;;0.81;80.31
49072;BME280;74284;52.610;10.236;2024-01-06T09:08:53;100478.28;;;0.77;80.97
49072;BME280;74284;52.610;10.236;2024-01-06T09:11:19;100473.13;;;0.73;81.14
49072;BME280;74284;52.610;10.236;2024-01-06T09:13:44;100481.84;;;0.73;81.36
49072;BME280;74284;52.610;10.236;2024-01-06T09:16:09;100493.06;;;0.81;79.62
49072;BME280;74284;52.610;10.236;2024-01-06T09:18:35;100482.44;;;0.92;79.26
49072;BME280;74284;52.610;10.236;2024-01-06T09:21:01;100496.78;;;0.68;79.71
49072;BME280;74284;52.610;10.236;2024-01-06T09:23:26;100495.78;;;0.75;80.14
49072;BME280;74284;52.610;10.236;2024-01-06T09:25:51;100501.25;;;1.16;78.60
49072;BME280;74284;52.610;10.236;2024-01-06T09:28:18;100502.25;;;1.08;79.31
49072;BME280;74284;52.610;10.236;2024-01-06T09:30:43;100508.91;;;0.74;79.83
49072;BME280;74284;52.610;10.236;2024-01-06T09:33:08;100514.72;;;0.94;79.52
49072;BME280;74284;52.610;10.236;2024-01-06T09:35:34;100516.00;;;1.21;78.34
49072;BME280;74284;52.610;10.236;2024-01-06T09:38:00;100519.75;;;1.06;78.44
49072;BME280;74284;52.610;10.236;2024-01-06T09:40:25;100520.47;;;1.16;78.73
49072;BME280;74284;52.610;10.236;2024-01-06T09:42:51;100527.84;;;1.45;77.05
49072;BME280;74284;52.610;10.236;2024-01-06T09:45:17;100531.78;;;1.20;77.59
49072;BME280;74284;52.610;10.236;2024-01-06T14:19:12;100788.09;;;-2.09;100.00
49072;BME280;74284;52.610;10.236;2024-01-06T14:21:37;100793.22;;;-2.63;100.00
49072;BME280;74284;52.610;10.236;2024-01-06T14:24:04;100781.94;;;-2.47;100.00
49072;BME280;74284;52.610;10.236;2024-01-06T14:26:31;100771.06;;;-0.48;100.00
49072;BME280;74284;52.610;10.236;2024-01-06T14:28:56;100789.78;;;-2.54;100.00
49072;BME280;74284;52.610;10.236;2024-01-06T14:31:23;100795.00;;;-2.28;100.00
49072;BME280;74284;52.610;10.236;2024-01-06T14:33:49;100800.19;;;-2.51;100.00
49072;BME280;74284;52.610;10.236;2024-01-06T14:36:14;100798.50;;;-2.31;100.00
49072;BME280;74284;52.610;10.236;2024-01-06T14:38:39;100795.88;;;-2.35;100.00
49072;BME280;74284;52.610;10.236;2024-01-06T14:41:05;100812.38;;;-2.50;100.00
49072;BME280;74284;52.610;10.236;2024-01-06T14:43:30;100812.41;;;-2.21;100.00
49072;BME280;74284;52.610;10.236;2024-01-06T14:45:55;100817.59;;;-2.38;100.00
49072;BME280;74284;52.610;10.236;2024-01-06T14:48:21;100817.56;;;-2.53;100.00
49072;BME280;74284;52.610;10.236;2024-01-06T14:50:46;100814.06;;;-2.60;100.00
49072;BME280;74284;52.610;10.236;2024-01-06T14:53:13;100817.53;;;-2.67;100.00
49072;BME280;74284;52.610;10.236;2024-01-06T14:55:39;100837.38;;;-2.95;100.00
49072;BME280;74284;52.610;10.236;2024-01-06T14:58:04;100835.59;;;-3.01;100.00
49072;BME280;74284;52.610;10.236;2024-01-06T15:00:30;100840.91;;;-2.78;100.00
49072;BME280;74284;52.610;10.236;2024-01-06T15:02:56;100835.75;;;-2.68;100.00
49072;BME280;74284;52.610;10.236;2024-01-06T15:05:27;100850.63;;;-2.31;100.00
49072;BME280;74284;52.610;10.236;2024-01-06T15:07:54;100849.75;;;-2.36;100.00
49072;BME280;74284;52.610;10.236;2024-01-06T15:10:22;100844.56;;;-2.30;100.00
49072;BME280;74284;52.610;10.236;2024-01-06T15:12:48;100854.13;;;-2.27;100.00
49072;BME280;74284;52.610;10.236;2024-01-06T15:15:14;100861.00;;;-2.46;100.00
49072;BME280;74284;52.610;10.236;2024-01-06T15:17:39;100860.94;;;-2.69;100.00
49072;BME280;74284;52.610;10.236;2024-01-06T15:20:05;100866.13;;;-2.77;100.00
49072;BME280;74284;52.610;10.236;2024-01-06T15:22:31;100864.38;;;-2.75;100.00
49072;BME280;74284;52.610;10.236;2024-01-06T15:24:56;100870.38;;;-2.94;100.00
49072;BME280;74284;52.610;10.236;2024-01-06T15:27:22;100879.94;;;-2.94;100.00
49072;BME280;74284;52.610;10.236;2024-01-06T15:29:48;100872.97;;;-3.00;100.00
49072;BME280;74284;52.610;10.236;2024-01-06T15:32:13;100886.06;;;-2.86;100.00
49072;BME280;74284;52.610;10.236;2024-01-06T15:34:38;100884.25;;;-3.00;100.00
49072;BME280;74284;52.610;10.236;2024-01-06T15:37:04;100886.03;;;-2.88;100.00
49072;BME280;74284;52.610;10.236;2024-01-06T15:39:29;100896.34;;;-3.06;100.00
49072;BME280;74284;52.610;10.236;2024-01-06T15:41:55;100897.16;;;-3.15;100.00
49072;BME280;74284;52.610;10.236;2024-01-06T15:44:20;100898.19;;;-2.90;100.00
49072;BME280;74284;52.610;10.236;2024-01-06T15:46:46;100901.72;;;-2.76;100.00
49072;BME280;74284;52.610;10.236;2024-01-06T15:49:11;100906.03;;;-2.79;100.00
49072;BME280;74284;52.610;10.236;2024-01-06T15:51:36;100905.19;;;-2.77;100.00
49072;BME280;74284;52.610;10.236;2024-01-06T15:54:02;100912.84;;;-3.09;100.00
49072;BME280;74284;52.610;10.236;2024-01-06T15:56:27;100925.94;;;-2.93;100.00
49072;BME280;74284;52.610;10.236;2024-01-06T15:58:52;100924.16;;;-2.98;100.00
49072;BME280;74284;52.610;10.236;2024-01-06T16:01:20;100918.19;;;-2.86;100.00
49072;BME280;74284;52.610;10.236;2024-01-06T16:03:45;100927.59;;;-3.06;100.00
49072;BME280;74284;52.610;10.236;2024-01-06T16:06:11;100926.09;;;-2.66;100.00
49072;BME280;74284;52.610;10.236;2024-01-06T16:08:36;100929.50;;;-2.75;100.00
49072;BME280;74284;52.610;10.236;2024-01-06T16:11:02;100932.03;;;-2.87;100.00
49072;BME280;74284;52.610;10.236;2024-01-06T16:13:27;100938.22;;;-2.69;100.00
49072;BME280;74284;52.610;10.236;2024-01-06T16:15:54;100944.09;;;-3.03;100.00
49072;BME280;74284;52.610;10.236;2024-01-06T16:18:19;100929.75;;;-2.26;100.00
49072;BME280;74284;52.610;10.236;2024-01-06T16:20:45;100935.81;;;-2.24;100.00
49072;BME280;74284;52.610;10.236;2024-01-06T16:23:12;100938.38;;;-2.33;100.00
49072;BME280;74284;52.610;10.236;2024-01-06T16:25:38;100935.66;;;-2.63;100.00
49072;BME280;74284;52.610;10.236;2024-01-06T16:28:04;100937.34;;;-2.76;100.00
49072;BME280;74284;52.610;10.236;2024-01-06T16:30:29;100937.28;;;-2.84;100.00
49072;BME280;74284;52.610;10.236;2024-01-06T16:32:55;100944.34;;;-2.60;100.00
49072;BME280;74284;52.610;10.236;2024-01-06T16:35:20;100938.44;;;-2.16;100.00
49072;BME280;74284;52.610;10.236;2024-01-06T16:37:46;100946.22;;;-2.31;100.00
49072;BME280;74284;52.610;10.236;2024-01-06T16:40:11;100956.72;;;-2.13;100.00
49072;BME280;74284;52.610;10.236;2024-01-06T16:42:37;100947.22;;;-1.94;100.00
49072;BME280;74284;52.610;10.236;2024-01-06T16:45:06;100951.56;;;-1.82;100.00
49072;BME280;74284;52.610;10.236;2024-01-06T16:47:31;100955.06;;;-1.89;100.00
49072;BME280;74284;52.610;10.236;2024-01-06T16:49:57;100953.31;;;-1.87;100.00
49072;BME280;74284;52.610;10.236;2024-01-06T16:52:22;100960.22;;;-2.08;100.00
49072;BME280;74284;52.610;10.236;2024-01-06T16:54:47;100964.56;;;-2.07;100.00
49072;BME280;74284;52.610;10.236;2024-01-06T16:57:13;100967.25;;;-1.79;100.00
49072;BME280;74284;52.610;10.236;2024-01-06T16:59:38;100968.97;;;-1.84;100.00
49072;BME280;74284;52.610;10.236;2024-01-06T17:02:03;100980.19;;;-2.10;100.00
49072;BME280;74284;52.610;10.236;2024-01-06T17:04:31;100981.78;;;-2.47;100.00
49072;BME280;74284;52.610;10.236;2024-01-06T17:06:56;100981.91;;;-2.20;100.00
49072;BME280;74284;52.610;10.236;2024-01-06T17:09:24;100986.31;;;-2.03;100.00